Time;durP1;ratioP1;P1;durP2;ratioP2;P2;SDS_P1;SDS_P2;PMS_P1;PMS_P2;Temp;Humidity;BMP_temperature;BMP_pressure;BME280_temperature;BME280_humidity;BME280_pressure;Samples;Min_cycle;Max_cycle;Signal;HPM_P1;HPM_P2
2024/01/19 01:27:31;;;;;;;;;70.50;54.00;;;;;;;;6463270;46;50712;-63
2024/01/19 01:33:34;;;;;;;;;76.50;61.00;;;;;;;;6502460;38;8959;-63
2024/01/19 01:39:37;;;;;;;;;78.50;61.00;;;;;;;;6502459;38;9007;-62
2024/01/19 01:45:41;;;;;;;;;66.25;51.75;;;;;;;;6502453;46;8963;-64
2024/01/19 01:51:46;;;;;;;;;68.25;56.25;;;;;;;;6502192;38;8981;-63
2024/01/19 01:57:50;;;;;;;;;78.50;59.50;;;;;;;;6503537;38;8802;-60
2024/01/19 02:03:56;;;;;;;;;76.75;62.25;;;;;;;;6502662;31;9791;-62
2024/01/19 02:09:59;;;;;;;;;77.75;60.75;;;;;;;;6494088;39;8884;-63
2024/01/19 02:16:04;;;;;;;;;79.75;63.00;;;;;;;;6402852;46;5002577;-63
2024/01/19 02:22:08;;;;;;;;;77.50;62.25;;;;;;;;6494302;31;8899;-62
2024/01/19 02:28:12;;;;;;;;;76.75;60.75;;;;;;;;6494799;46;8921;-63
2024/01/19 02:34:17;;;;;;;;;76.75;62.75;;;;;;;;6493972;39;9151;-62
2024/01/19 02:40:20;;;;;;;;;79.75;63.00;;;;;;;;6493445;39;8944;-62
2024/01/19 02:46:23;;;;;;;;;81.25;63.00;;;;;;;;6492356;46;8860;-62
2024/01/19 02:52:26;;;;;;;;;84.75;62.75;;;;;;;;6493945;39;8874;-63
2024/01/19 02:58:29;;;;;;;;;87.33;66.00;;;;;;;;6494298;31;8856;-63
2024/01/19 03:04:32;;;;;;;;;84.67;65.00;;;;;;;;6493716;39;8882;-64
2024/01/19 03:10:37;;;;;;;;;79.00;66.00;;;;;;;;6493704;46;8895;-62
2024/01/19 03:16:42;;;;;;;;;84.67;67.00;;;;;;;;6493408;31;8854;-63
2024/01/19 03:22:44;;;;;;;;;80.50;64.00;;;;;;;;6493212;39;8918;-63
2024/01/19 03:28:50;;;;;;;;;81.50;66.25;;;;;;;;6494278;39;8978;-63
2024/01/19 03:34:56;;;;;;;;;78.00;60.75;;;;;;;;6492926;46;8904;-65
2024/01/19 03:41:00;;;;;;;;;78.75;61.50;;;;;;;;6492807;39;8874;-62
2024/01/19 03:47:04;;;;;;;;;83.25;62.75;;;;;;;;6491991;31;8920;-62
2024/01/19 03:53:06;;;;;;;;;68.75;55.50;;;;;;;;6473853;36;5001722;-62
2024/01/19 03:59:08;;;;;;;;;79.25;62.25;;;;;;;;6491784;39;8855;-63
2024/01/19 04:05:13;;;;;;;;;83.00;60.00;;;;;;;;6491506;46;9104;-62
2024/01/19 04:11:15;;;;;;;;;80.33;63.00;;;;;;;;6492370;39;8964;-62
2024/01/19 04:17:18;;;;;;;;;81.00;65.00;;;;;;;;6490994;39;8913;-63
2024/01/19 04:23:20;;;;;;;;;90.67;67.00;;;;;;;;6490376;46;8951;-65
2024/01/19 04:29:23;;;;;;;;;85.67;68.00;;;;;;;;6490872;39;8826;-63
2024/01/19 04:35:25;;;;;;;;;91.33;70.33;;;;;;;;6490235;46;8895;-63
2024/01/19 04:41:29;;;;;;;;;92.67;71.00;;;;;;;;6491905;39;8915;-64
2024/01/19 04:47:35;;;;;;;;;88.67;69.00;;;;;;;;6490493;46;8871;-63
2024/01/19 04:53:39;;;;;;;;;94.67;73.67;;;;;;;;6491004;39;8916;-64
2024/01/19 04:59:42;;;;;;;;;88.33;71.67;;;;;;;;6491868;39;9543;-63
2024/01/19 05:05:46;;;;;;;;;94.33;74.67;;;;;;;;6460410;47;9013;-58
2024/01/19 05:11:50;;;;;;;;;94.00;76.67;;;;;;;;6491497;39;8902;-60
2024/01/19 05:17:52;;;;;;;;;95.33;75.33;;;;;;;;6490630;39;8898;-61
2024/01/19 05:23:56;;;;;;;;;94.00;73.33;;;;;;;;6490637;39;8894;-59
2024/01/19 05:30:02;;;;;;;;;99.33;74.00;;;;;;;;6490745;47;8882;-58
2024/01/19 05:36:05;;;;;;;;;99.50;78.50;;;;;;;;6489757;39;8934;-58
2024/01/19 05:42:09;;;;;;;;;96.00;75.33;;;;;;;;6537623;36;8896;-59
2024/01/19 05:48:11;;;;;;;;;99.33;76.00;;;;;;;;6492443;39;9366;-59
2024/01/19 05:54:13;;;;;;;;;98.00;75.67;;;;;;;;6492261;46;8882;-58
2024/01/19 06:00:16;;;;;;;;;94.00;72.00;;;;;;;;6491379;31;8982;-59
2024/01/19 06:06:19;;;;;;;;;98.67;76.33;;;;;;;;6492068;39;8938;-59
2024/01/19 06:12:21;;;;;;;;;102.33;82.00;;;;;;;;6493174;39;8906;-60
2024/01/19 06:18:24;;;;;;;;;94.00;76.33;;;;;;;;6491241;46;8913;-58
2024/01/19 06:24:29;;;;;;;;;106.33;88.67;;;;;;;;6492218;39;8875;-59
2024/01/19 06:30:33;;;;;;;;;105.25;92.75;;;;;;;;6311661;39;10000759;-61
2024/01/19 06:36:36;;;;;;;;;101.67;81.00;;;;;;;;6490393;39;8935;-59
2024/01/19 06:42:40;;;;;;;;;100.00;80.33;;;;;;;;6491285;31;9577;-59
2024/01/19 06:48:44;;;;;;;;;101.00;76.67;;;;;;;;6489396;31;8950;-62
2024/01/19 06:54:46;;;;;;;;;101.67;84.67;;;;;;;;6490909;39;8992;-59
2024/01/19 07:00:49;;;;;;;;;100.33;74.33;;;;;;;;6490800;31;8911;-61
2024/01/19 07:06:51;;;;;;;;;102.33;80.67;;;;;;;;6490433;39;8902;-60
2024/01/19 07:12:56;;;;;;;;;99.67;79.00;;;;;;;;6491094;39;8899;-60
2024/01/19 07:18:59;;;;;;;;;104.00;84.33;;;;;;;;6489973;39;8865;-62
2024/01/19 07:25:03;;;;;;;;;100.67;86.00;;;;;;;;6489960;39;8891;-60
2024/01/19 07:31:05;;;;;;;;;106.33;89.67;;;;;;;;6490555;39;8881;-60
2024/01/19 07:37:07;;;;;;;;;105.33;87.00;;;;;;;;6488653;31;8887;-61
2024/01/19 07:43:17;;;;;;;;;101.00;86.67;;;;;;;;6489541;39;8925;-61
2024/01/19 07:49:26;;;;;;;;;107.00;95.67;;;;;;;;6487623;39;8966;-65
2024/01/19 07:55:33;;;;;;;;;103.67;84.67;;;;;;;;6486319;46;8906;-65
2024/01/19 08:01:50;;;;;;;;;99.33;85.00;;;;;;;;6486923;39;8895;-63
2024/01/19 08:07:56;;;;;;;;;91.33;70.00;;;;;;;;6487723;39;9630;-67
2024/01/19 08:14:08;;;;;;;;;86.67;66.00;;;;;;;;6489470;39;8887;-66
2024/01/19 08:20:27;;;;;;;;;90.67;71.00;;;;;;;;6488828;46;8914;-64
2024/01/19 08:26:32;;;;;;;;;92.25;70.00;;;;;;;;6488374;39;8876;-67
2024/01/19 08:32:40;;;;;;;;;85.50;67.00;;;;;;;;6487298;31;8873;-65
2024/01/19 08:38:43;;;;;;;;;86.50;69.00;;;;;;;;6488866;39;9570;-65
2024/01/19 08:44:45;;;;;;;;;87.25;68.50;;;;;;;;6488805;31;8924;-65
2024/01/19 08:50:47;;;;;;;;;82.00;64.25;;;;;;;;6488920;31;9010;-65
2024/01/19 08:56:51;;;;;;;;;95.75;74.75;;;;;;;;6489051;39;8961;-64
2024/01/19 09:02:59;;;;;;;;;89.25;70.25;;;;;;;;6489141;39;8966;-64
2024/01/19 09:09:08;;;;;;;;;77.75;64.25;;;;;;;;6487760;39;9549;-64
2024/01/19 09:15:16;;;;;;;;;86.75;67.00;;;;;;;;6487768;31;8910;-62
2024/01/19 09:21:22;;;;;;;;;80.00;62.75;;;;;;;;6490457;39;8910;-64
2024/01/19 09:27:28;;;;;;;;;82.75;66.00;;;;;;;;6488914;39;8938;-65
2024/01/19 09:33:34;;;;;;;;;87.00;69.00;;;;;;;;6488663;39;8898;-64
2024/01/19 09:39:39;;;;;;;;;83.25;66.25;;;;;;;;6489524;39;8958;-64
2024/01/19 09:45:43;;;;;;;;;48.25;38.00;;;;;;;;6489742;39;8929;-64
2024/01/19 09:52:13;;;;;;;;;86.50;65.50;;;;;;;;6489704;39;9654;-60
2024/01/19 09:58:20;;;;;;;;;83.50;65.75;;;;;;;;6489927;39;8921;-64
2024/01/19 10:04:25;;;;;;;;;87.00;70.00;;;;;;;;6490125;31;8932;-65
2024/01/19 10:10:28;;;;;;;;;81.50;63.25;;;;;;;;6488977;46;8858;-64
2024/01/19 10:16:34;;;;;;;;;83.25;64.50;;;;;;;;6490000;31;8848;-65
2024/01/19 10:22:41;;;;;;;;;83.25;64.25;;;;;;;;6488145;39;8898;-63
2024/01/19 10:28:47;;;;;;;;;85.25;65.00;;;;;;;;6488178;39;9010;-64
2024/01/19 10:35:29;;;;;;;;;75.00;59.50;;;;;;;;6488821;39;9007;-63
2024/01/19 10:41:33;;;;;;;;;76.25;61.00;;;;;;;;6490123;31;9010;-64
2024/01/19 10:47:44;;;;;;;;;69.00;55.25;;;;;;;;6489088;46;8936;-65
2024/01/19 10:53:49;;;;;;;;;66.00;54.25;;;;;;;;6488088;31;8915;-64
2024/01/19 10:59:53;;;;;;;;;68.00;56.00;;;;;;;;6490051;39;8968;-63
2024/01/19 11:06:00;;;;;;;;;69.75;52.50;;;;;;;;6488634;39;8954;-65
2024/01/19 11:12:06;;;;;;;;;67.50;54.00;;;;;;;;6488171;39;9060;-64
2024/01/19 11:18:10;;;;;;;;;74.50;56.50;;;;;;;;6487950;46;8908;-64
2024/01/19 11:24:20;;;;;;;;;62.50;51.25;;;;;;;;6490358;46;8819;-65
2024/01/19 11:30:43;;;;;;;;;64.50;52.25;;;;;;;;6489078;39;8933;-63
2024/01/19 11:36:49;;;;;;;;;62.50;51.00;;;;;;;;6490857;39;9001;-64
2024/01/19 11:42:53;;;;;;;;;64.75;52.25;;;;;;;;6489402;46;8844;-66
2024/01/19 11:48:57;;;;;;;;;60.00;48.50;;;;;;;;6489053;39;9089;-64
2024/01/19 11:55:20;;;;;;;;;58.75;46.75;;;;;;;;6489196;31;8962;-64
2024/01/19 12:01:25;;;;;;;;;59.25;47.50;;;;;;;;6487618;46;8905;-63
2024/01/19 12:07:30;;;;;;;;;61.50;50.50;;;;;;;;6488503;31;8920;-64
2024/01/19 12:13:38;;;;;;;;;58.00;47.00;;;;;;;;6488057;46;8957;-64
2024/01/19 12:19:52;;;;;;;;;62.75;51.00;;;;;;;;6487782;39;9039;-65
2024/01/19 12:25:57;;;;;;;;;58.75;47.00;;;;;;;;6490428;31;8989;-66
2024/01/19 12:32:09;;;;;;;;;58.50;46.75;;;;;;;;6489518;31;8899;-64
2024/01/19 12:38:14;;;;;;;;;55.00;46.00;;;;;;;;6489755;31;8854;-64
2024/01/19 12:44:26;;;;;;;;;56.50;48.00;;;;;;;;6488680;46;8880;-64
2024/01/19 12:50:30;;;;;;;;;55.00;44.75;;;;;;;;6489162;39;9165;-65
2024/01/19 12:56:35;;;;;;;;;55.25;46.00;;;;;;;;6488928;39;9567;-64
2024/01/19 13:02:38;;;;;;;;;57.75;48.00;;;;;;;;6485473;47;8929;-63
2024/01/19 13:08:43;;;;;;;;;56.75;47.50;;;;;;;;6489332;39;10212;-65
2024/01/19 13:14:46;;;;;;;;;66.25;54.50;;;;;;;;6307437;31;10001182;-64
2024/01/19 13:20:48;;;;;;;;;52.50;43.75;;;;;;;;6489292;39;9472;-63
2024/01/19 13:27:02;;;;;;;;;57.50;47.25;;;;;;;;6489907;31;9660;-66
2024/01/19 13:33:05;;;;;;;;;55.25;42.50;;;;;;;;6488371;31;8872;-63
2024/01/19 13:39:09;;;;;;;;;53.25;43.75;;;;;;;;6487752;39;8956;-63
2024/01/19 13:45:14;;;;;;;;;52.50;44.25;;;;;;;;6488191;39;9063;-64
2024/01/19 13:51:20;;;;;;;;;54.50;45.25;;;;;;;;6489038;31;8905;-64
2024/01/19 13:57:23;;;;;;;;;44.75;39.25;;;;;;;;6486038;31;8970;-63
2024/01/19 14:03:27;;;;;;;;;52.50;43.00;;;;;;;;6488944;39;9028;-63
2024/01/19 14:09:30;;;;;;;;;55.00;45.75;;;;;;;;6488003;39;8988;-62
2024/01/19 14:15:35;;;;;;;;;60.25;48.50;;;;;;;;6483787;39;8944;-62
2024/01/19 14:21:46;;;;;;;;;66.25;55.25;;;;;;;;6486515;46;9672;-63
2024/01/19 14:27:48;;;;;;;;;70.50;53.25;;;;;;;;6488582;39;8978;-64
2024/01/19 14:33:51;;;;;;;;;73.75;59.25;;;;;;;;6488286;31;8896;-64
2024/01/19 14:39:54;;;;;;;;;75.50;60.00;;;;;;;;6487051;46;8866;-63
2024/01/19 14:45:57;;;;;;;;;80.00;62.25;;;;;;;;6488350;39;8876;-62
2024/01/19 14:52:04;;;;;;;;;78.25;60.25;;;;;;;;6487788;39;8964;-63
2024/01/19 14:58:08;;;;;;;;;79.00;63.25;;;;;;;;6488684;39;8906;-63
2024/01/19 15:04:11;;;;;;;;;82.25;63.50;;;;;;;;6487301;39;8929;-62
2024/01/19 15:10:15;;;;;;;;;79.25;62.75;;;;;;;;6489997;31;8971;-64
2024/01/19 15:16:19;;;;;;;;;81.25;63.25;;;;;;;;6488021;31;8886;-63
2024/01/19 15:22:24;;;;;;;;;79.00;60.25;;;;;;;;6487753;39;8944;-63
2024/01/19 15:28:28;;;;;;;;;72.00;57.50;;;;;;;;6488564;31;9025;-63
2024/01/19 15:34:30;;;;;;;;;62.25;51.75;;;;;;;;6488664;46;8871;-64
2024/01/19 15:40:34;;;;;;;;;57.75;47.75;;;;;;;;6489408;39;9526;-62
2024/01/19 15:46:36;;;;;;;;;58.75;45.50;;;;;;;;6489305;39;8864;-63
2024/01/19 15:52:40;;;;;;;;;61.25;47.75;;;;;;;;6489174;39;9105;-62
2024/01/19 15:58:42;;;;;;;;;52.50;43.75;;;;;;;;6488413;31;8919;-62
2024/01/19 16:04:46;;;;;;;;;52.25;43.00;;;;;;;;6488938;39;8936;-63
2024/01/19 16:10:50;;;;;;;;;39.00;37.50;;;;;;;;6488446;46;8860;-63
2024/01/19 16:16:53;;;;;;;;;50.50;43.75;;;;;;;;6488969;39;9029;-63
2024/01/19 16:22:55;;;;;;;;;50.25;42.50;;;;;;;;6489761;39;8922;-62
2024/01/19 16:29:01;;;;;;;;;44.00;41.25;;;;;;;;6488795;39;8894;-62
2024/01/19 16:35:06;;;;;;;;;33.75;33.75;;;;;;;;6489342;31;8880;-61
2024/01/19 16:41:09;;;;;;;;;40.00;37.25;;;;;;;;6488821;39;8921;-65
2024/01/19 16:47:12;;;;;;;;;43.25;36.25;;;;;;;;6487600;39;8912;-62
2024/01/19 16:53:15;;;;;;;;;45.25;40.25;;;;;;;;6489187;31;9071;-63
2024/01/19 16:59:18;;;;;;;;;35.50;32.75;;;;;;;;6489401;39;9889;-63
2024/01/19 17:05:20;;;;;;;;;34.75;33.75;;;;;;;;6488287;39;9449;-62
2024/01/19 17:11:27;;;;;;;;;36.00;31.25;;;;;;;;6485977;47;8954;-64
2024/01/19 17:17:30;;;;;;;;;34.00;33.25;;;;;;;;6485265;47;8914;-62
2024/01/19 17:23:32;;;;;;;;;42.75;41.00;;;;;;;;6487809;47;8868;-62
2024/01/19 17:29:36;;;;;;;;;46.25;39.50;;;;;;;;6487457;31;9091;-62
2024/01/19 17:35:42;;;;;;;;;39.75;36.75;;;;;;;;6486844;47;8903;-59
2024/01/19 17:41:47;;;;;;;;;33.00;31.50;;;;;;;;6489147;46;8869;-60
2024/01/19 17:47:49;;;;;;;;;38.75;26.00;;;;;;;;6489314;46;8868;-59
2024/01/19 17:53:57;;;;;;;;;41.00;36.00;;;;;;;;6490786;39;8894;-59
2024/01/19 18:00:00;;;;;;;;;37.75;36.00;;;;;;;;6489402;39;9022;-59
2024/01/19 18:06:02;;;;;;;;;41.25;35.75;;;;;;;;6490577;39;8936;-60
2024/01/19 18:12:05;;;;;;;;;44.00;41.00;;;;;;;;6489442;39;8868;-60
2024/01/19 18:18:13;;;;;;;;;40.00;35.00;;;;;;;;6489608;46;8950;-60
2024/01/19 18:24:31;;;;;;;;;32.75;29.75;;;;;;;;6489069;39;8872;-58
2024/01/19 18:30:36;;;;;;;;;32.75;31.00;;;;;;;;6490645;39;8932;-61
2024/01/19 18:36:42;;;;;;;;;26.67;25.00;;;;;;;;6489590;39;8900;-60
2024/01/19 18:42:44;;;;;;;;;42.00;35.50;;;;;;;;6489930;31;9081;-60
2024/01/19 18:48:46;;;;;;;;;37.25;34.75;;;;;;;;6489827;39;9019;-59
2024/01/19 18:54:49;;;;;;;;;33.50;33.50;;;;;;;;6489692;31;8952;-58
2024/01/19 19:00:51;;;;;;;;;36.25;34.75;;;;;;;;6490276;39;8911;-59
2024/01/19 19:06:53;;;;;;;;;36.25;34.50;;;;;;;;6489089;46;8905;-59
2024/01/19 19:12:56;;;;;;;;;41.50;40.75;;;;;;;;6489104;46;8895;-59
2024/01/19 19:18:58;;;;;;;;;31.75;28.75;;;;;;;;6490270;39;8890;-60
2024/01/19 19:25:09;;;;;;;;;36.75;35.50;;;;;;;;6490051;31;8887;-59
2024/01/19 19:31:11;;;;;;;;;38.75;35.50;;;;;;;;6518807;36;8880;-58
2024/01/19 19:37:14;;;;;;;;;40.00;34.25;;;;;;;;6489506;39;8994;-59
2024/01/19 19:43:19;;;;;;;;;45.25;35.25;;;;;;;;6488851;39;9058;-59
2024/01/19 19:49:22;;;;;;;;;41.00;35.75;;;;;;;;6488712;31;8930;-59
2024/01/19 19:55:25;;;;;;;;;47.00;43.75;;;;;;;;6489868;39;9488;-60
2024/01/19 20:01:27;;;;;;;;;54.50;41.75;;;;;;;;6488860;46;8934;-60
2024/01/19 20:07:32;;;;;;;;;51.75;44.00;;;;;;;;6488024;46;8941;-60
2024/01/19 20:13:35;;;;;;;;;40.75;38.75;;;;;;;;6489086;39;9472;-58
2024/01/19 20:19:37;;;;;;;;;42.25;32.75;;;;;;;;6489365;31;8989;-58
2024/01/19 20:25:41;;;;;;;;;46.50;43.50;;;;;;;;6489586;39;8960;-60
2024/01/19 20:31:44;;;;;;;;;45.00;39.50;;;;;;;;6488585;39;8963;-60
2024/01/19 20:37:47;;;;;;;;;41.25;35.25;;;;;;;;6488516;36;8921;-61
2024/01/19 20:43:56;;;;;;;;;40.00;36.00;;;;;;;;6488900;39;9598;-59
2024/01/19 20:49:59;;;;;;;;;38.75;33.25;;;;;;;;6488808;39;8953;-62
2024/01/19 20:56:01;;;;;;;;;36.25;34.75;;;;;;;;6488537;47;8892;-59
2024/01/19 21:02:07;;;;;;;;;30.00;27.00;;;;;;;;6488506;39;8918;-61
2024/01/19 21:08:12;;;;;;;;;39.25;34.25;;;;;;;;6489555;39;8929;-61
2024/01/19 21:14:14;;;;;;;;;37.50;31.50;;;;;;;;6489983;39;8917;-62
2024/01/19 21:20:18;;;;;;;;;31.75;28.50;;;;;;;;6489827;46;8913;-59
2024/01/19 21:26:26;;;;;;;;;33.00;29.25;;;;;;;;6490337;39;8890;-61
2024/01/19 21:32:29;;;;;;;;;27.50;24.50;;;;;;;;6490484;31;8930;-60
2024/01/19 21:38:34;;;;;;;;;27.75;26.00;;;;;;;;6489598;39;8891;-59
2024/01/19 21:44:37;;;;;;;;;29.75;28.50;;;;;;;;6489527;39;8888;-60
2024/01/19 21:50:42;;;;;;;;;24.50;22.25;;;;;;;;6491083;39;9008;-58
2024/01/19 21:56:45;;;;;;;;;23.25;21.50;;;;;;;;6490420;39;8856;-58
2024/01/19 22:02:49;;;;;;;;;18.00;18.00;;;;;;;;6488933;39;9008;-59
2024/01/19 22:08:52;;;;;;;;;15.50;14.50;;;;;;;;6490453;39;8884;-61
2024/01/19 22:14:55;;;;;;;;;20.75;19.50;;;;;;;;6488826;31;9013;-59
2024/01/19 22:20:57;;;;;;;;;15.75;15.75;;;;;;;;6490409;39;8960;-60
2024/01/19 22:26:59;;;;;;;;;13.50;13.25;;;;;;;;6489519;39;8875;-60
2024/01/19 22:33:06;;;;;;;;;10.00;10.00;;;;;;;;6489911;39;8860;-58
2024/01/19 22:39:11;;;;;;;;;8.00;7.00;;;;;;;;6490777;31;8969;-60
2024/01/19 22:45:14;;;;;;;;;7.75;7.75;;;;;;;;6489593;39;8864;-59
2024/01/19 22:51:16;;;;;;;;;13.00;10.00;;;;;;;;6489818;39;8922;-58
2024/01/19 22:57:21;;;;;;;;;12.25;8.75;;;;;;;;6489860;46;8840;-59
2024/01/19 23:03:23;;;;;;;;;10.75;10.25;;;;;;;;6489511;31;8938;-59
2024/01/19 23:09:27;;;;;;;;;7.75;7.75;;;;;;;;6489606;39;9535;-61
2024/01/19 23:15:30;;;;;;;;;9.50;9.50;;;;;;;;6489054;39;8913;-58
2024/01/19 23:21:35;;;;;;;;;9.75;9.75;;;;;;;;6489698;39;8907;-59
2024/01/19 23:27:43;;;;;;;;;14.50;12.00;;;;;;;;6488202;39;8953;-60
2024/01/19 23:33:47;;;;;;;;;14.00;11.75;;;;;;;;6488638;39;8884;-59
2024/01/19 23:39:50;;;;;;;;;14.00;13.00;;;;;;;;6489437;39;8933;-60
2024/01/19 23:45:54;;;;;;;;;13.00;11.50;;;;;;;;6488546;39;9068;-58
2024/01/19 23:51:56;;;;;;;;;14.75;11.75;;;;;;;;6489285;39;8906;-59
2024/01/19 23:58:02;;;;;;;;;11.25;11.00;;;;;;;;6488724;46;8936;-59
